Portada
METAR-TAF:

METAR-TAF

Aeroports :

Puerto Escondido, Mèxic

latitud: 15-52N, longitud: 097-05W, altitud: 88 m

Observació

L'informe es va fer fa 25 minuts, a les 04:43 UTC
Vent 7 kt del Est/Nord-Est
Temperatura 25°C
Humitat 74%
Pressió 1014 hPa
Visibilitat: 14.5 km
Cel clar

METAR: MMPS 070443Z 06007KT 9SM SKC 25/20 A2994 RMK HZY

Hora: 23:08 (05:08 UTC)

Pronòstic

L'informe es va fer fa 12 hores i 39 minuts, a les 16:29 UTC
Pronòstic vàlid del 06 a les 18 UTC al 07 a les 18 UTC
Vent 5 kt del Oest/Sud-Oest
Visibilitat: 10 km
Cel clar
Evolucionant progressivament
l' 06 a les 20 UTC al 06 a les 21 UTC
Vent 12 kt del Oest/Sud-Oest
Núvols disperses a una alçada de 1500 ft
A partir de les 07 a les 0200 UTC
Vent kt del Nord
Visibilitat: 10 km
Cel clar
Evolucionant progressivament
l' 07 a les 12 UTC al 07 a les 13 UTC
Visibilitat: 9.7 km
calitja

TAF: MMPS 061629Z 0618/0718 24005KT P6SM SKC BECMG 0620/0621 24012KT SCT015 FM070200 00000KT P6SM SKC BECMG 0712/0713 6SM HZ

Observacions i pronòstics meteorològics de més de 4000 aeroports (METAR i TAF).

Les estacions disponibles són els punts grocs i vermells al mapa.

Posi el ratolí al punt desitjat per veure el nom de l'estació.

Feu clic per veure les observacions i els pronòstics meteorològics.

Per canviar el mapa: feu clic els botons verds amb una creu de color negre per apropar; al botó verd amb un guió per allunyar la imatge; o en les fletxes verdes per a mapes adjacents.


METAR-TAF: